createdAt,value
2018-11-06T00:01:13.187Z,37.63
2018-11-06T00:03:47.943Z,36.80
2018-11-06T00:06:21.999Z,36.63
2018-11-06T00:08:56.028Z,37.03
2018-11-06T00:11:30.293Z,37.20
2018-11-06T00:14:04.687Z,36.87
2018-11-06T00:16:38.736Z,35.57
2018-11-06T00:19:12.772Z,35.37
2018-11-06T00:21:46.811Z,35.00
2018-11-06T00:24:20.932Z,35.03
2018-11-06T00:26:56.088Z,34.93
2018-11-06T00:29:30.126Z,34.70
2018-11-06T00:32:04.209Z,35.57
2018-11-06T00:34:38.264Z,36.20
2018-11-06T00:37:12.343Z,35.07
2018-11-06T00:39:46.380Z,35.83
2018-11-06T00:42:20.486Z,34.57
2018-11-06T00:44:54.527Z,33.60
2018-11-06T00:47:28.668Z,33.77
2018-11-06T00:50:02.749Z,33.73
2018-11-06T00:52:37.040Z,34.10
2018-11-06T00:55:11.332Z,34.40
2018-11-06T00:57:45.391Z,34.37
2018-11-06T01:00:20.071Z,34.37
2018-11-06T01:02:54.193Z,34.03
2018-11-06T01:05:28.256Z,33.73
2018-11-06T01:08:02.412Z,33.93
2018-11-06T01:10:36.448Z,33.77
2018-11-06T01:13:10.500Z,33.00
2018-11-06T01:15:44.551Z,33.43
2018-11-06T01:18:18.650Z,32.47
2018-11-06T01:20:52.715Z,33.37
2018-11-06T01:23:26.748Z,34.33
2018-11-06T01:26:00.776Z,33.53
2018-11-06T01:28:35.002Z,33.57
2018-11-06T01:31:09.058Z,33.20
2018-11-06T01:33:43.143Z,34.10
2018-11-06T01:36:17.178Z,33.07
2018-11-06T01:38:51.227Z,32.93
2018-11-06T01:41:25.311Z,33.80
2018-11-06T01:43:59.353Z,33.60
2018-11-06T01:46:33.458Z,32.60
2018-11-06T01:49:07.514Z,32.37
2018-11-06T01:51:41.575Z,32.97
2018-11-06T01:54:15.624Z,32.20
2018-11-06T01:56:49.675Z,32.63
2018-11-06T01:59:23.766Z,33.13
2018-11-06T02:01:57.819Z,33.47
2018-11-06T02:04:31.995Z,32.03
2018-11-06T02:07:06.440Z,32.77
2018-11-06T02:09:40.459Z,33.03
2018-11-06T02:12:14.631Z,32.23
2018-11-06T02:14:48.655Z,32.60
2018-11-06T02:17:22.719Z,31.57
2018-11-06T02:19:56.758Z,31.30
2018-11-06T02:22:30.879Z,31.87
2018-11-06T02:25:05.955Z,32.40
2018-11-06T02:27:40.040Z,31.83
2018-11-06T02:30:15.467Z,32.40
2018-11-06T02:32:49.600Z,32.17
2018-11-06T02:35:23.604Z,31.23
2018-11-06T02:37:57.691Z,32.00
2018-11-06T02:40:31.711Z,32.50
2018-11-06T02:43:05.892Z,33.53
2018-11-06T02:45:39.922Z,32.97
2018-11-06T02:48:13.958Z,32.50
2018-11-06T02:50:48.083Z,31.90
2018-11-06T02:53:22.180Z,32.93
2018-11-06T02:55:56.346Z,31.03
2018-11-06T02:58:30.255Z,31.87
2018-11-06T03:01:04.287Z,32.80
2018-11-06T03:03:42.307Z,32.60
2018-11-06T03:06:16.398Z,31.70
2018-11-06T03:08:50.544Z,32.23
2018-11-06T03:11:24.672Z,31.63
2018-11-06T03:13:58.683Z,32.47
2018-11-06T03:16:32.888Z,31.00
2018-11-06T03:19:06.986Z,31.93
2018-11-06T03:21:40.995Z,30.77
2018-11-06T03:24:15.131Z,31.53
2018-11-06T03:26:49.203Z,31.63
2018-11-06T03:29:23.168Z,32.00
2018-11-06T03:31:57.196Z,32.90
2018-11-06T03:34:31.211Z,32.57
2018-11-06T03:37:05.836Z,32.63
2018-11-06T03:39:39.891Z,32.30
2018-11-06T03:42:13.915Z,32.30
2018-11-06T03:44:47.916Z,33.07
2018-11-06T03:47:21.927Z,31.63
2018-11-06T03:49:56.067Z,31.70
2018-11-06T03:52:30.087Z,31.73
2018-11-06T03:55:04.453Z,31.27
2018-11-06T03:57:38.501Z,31.80
2018-11-06T04:00:14.159Z,31.93
2018-11-06T04:02:48.298Z,31.47
2018-11-06T04:05:22.370Z,31.70
2018-11-06T04:07:56.391Z,31.67
2018-11-06T04:10:30.480Z,31.33
2018-11-06T04:13:04.491Z,30.83
2018-11-06T04:15:38.592Z,31.03
2018-11-06T04:18:12.596Z,31.40
2018-11-06T04:20:46.592Z,31.60
2018-11-06T04:23:20.639Z,31.60
2018-11-06T04:25:54.808Z,31.90
2018-11-06T04:28:28.916Z,31.97
2018-11-06T04:31:02.914Z,32.43
2018-11-06T04:33:37.333Z,32.20
2018-11-06T04:36:11.327Z,32.60
2018-11-06T04:38:45.344Z,32.00
2018-11-06T04:41:19.504Z,32.30
2018-11-06T04:43:53.516Z,32.30
2018-11-06T04:46:28.423Z,32.00
2018-11-06T04:49:02.465Z,32.07
2018-11-06T04:51:36.568Z,31.47
2018-11-06T04:54:10.600Z,31.87
2018-11-06T04:56:44.604Z,32.03
2018-11-06T04:59:18.619Z,31.20
2018-11-06T05:01:52.636Z,34.00
2018-11-06T05:04:26.752Z,31.93
2018-11-06T05:07:00.958Z,32.13
2018-11-06T05:09:34.932Z,32.90
2018-11-06T05:12:08.969Z,32.63
2018-11-06T05:14:43.008Z,32.17
2018-11-06T05:17:18.108Z,31.33
2018-11-06T05:19:52.132Z,31.17
2018-11-06T05:22:26.120Z,30.93
2018-11-06T05:25:00.176Z,30.87
2018-11-06T05:27:34.281Z,31.20
2018-11-06T05:30:09.360Z,31.13
2018-11-06T05:32:44.206Z,30.07
2018-11-06T05:35:18.199Z,31.30
2018-11-06T05:37:52.192Z,31.70
2018-11-06T05:41:06.056Z,30.43
2018-11-06T05:43:40.186Z,30.83
2018-11-06T05:46:14.192Z,30.93
2018-11-06T05:48:48.200Z,31.13
2018-11-06T05:51:22.217Z,31.40
2018-11-06T05:53:56.396Z,30.63
2018-11-06T05:56:30.391Z,31.07
2018-11-06T05:59:04.532Z,31.23
2018-11-06T06:01:38.543Z,30.57
2018-11-06T06:04:12.560Z,31.63
2018-11-06T06:06:46.655Z,31.77
2018-11-06T06:09:20.664Z,32.50
2018-11-06T06:11:54.787Z,31.67
2018-11-06T06:14:28.807Z,32.47
2018-11-06T06:17:02.810Z,32.10
2018-11-06T06:19:37.180Z,32.20
2018-11-06T06:22:11.195Z,32.00
2018-11-06T06:24:45.305Z,32.10
2018-11-06T06:27:19.404Z,31.57
2018-11-06T06:29:53.419Z,32.43
2018-11-06T06:32:27.464Z,32.03
2018-11-06T06:35:01.527Z,31.57
2018-11-06T06:37:35.663Z,32.40
2018-11-06T06:40:11.766Z,31.60
2018-11-06T06:42:46.199Z,31.77
2018-11-06T06:45:20.463Z,33.07
2018-11-06T06:47:54.465Z,31.80
2018-11-06T06:50:28.484Z,31.67
2018-11-06T06:53:02.496Z,33.43
2018-11-06T06:55:36.508Z,32.50
2018-11-06T06:58:10.581Z,31.90
2018-11-06T07:00:44.584Z,32.73
2018-11-06T07:03:18.652Z,32.00
2018-11-06T07:05:52.735Z,31.63
2018-11-06T07:08:26.767Z,32.00
2018-11-06T07:11:00.900Z,32.57
2018-11-06T07:13:34.879Z,31.73
2018-11-06T07:16:09.063Z,31.93
2018-11-06T07:18:43.275Z,32.47
2018-11-06T07:21:17.232Z,33.17
2018-11-06T07:23:51.235Z,33.30
2018-11-06T07:26:25.250Z,33.33
2018-11-06T07:28:59.378Z,32.03
2018-11-06T07:31:33.344Z,34.27
2018-11-06T07:34:07.364Z,32.57
2018-11-06T07:36:41.360Z,32.00
2018-11-06T07:39:15.372Z,32.03
2018-11-06T07:41:49.501Z,33.63
2018-11-06T07:44:23.512Z,32.27
2018-11-06T07:46:57.531Z,31.83
2018-11-06T07:49:31.558Z,33.50
2018-11-06T07:52:05.979Z,32.47
2018-11-06T07:54:40.089Z,32.13
2018-11-06T07:57:14.135Z,32.33
2018-11-06T07:59:48.364Z,31.80
2018-11-06T08:02:22.376Z,31.73
2018-11-06T08:04:56.392Z,33.37
2018-11-06T08:07:30.408Z,34.47
2018-11-06T08:10:05.189Z,32.60
2018-11-06T08:12:40.464Z,32.37
2018-11-06T08:15:14.666Z,34.47
2018-11-06T08:17:48.765Z,35.73
2018-11-06T08:20:22.868Z,35.77
2018-11-06T08:22:56.876Z,34.90
2018-11-06T08:25:30.911Z,35.50
2018-11-06T08:28:05.012Z,39.53
2018-11-06T08:30:39.099Z,38.03
2018-11-06T08:33:13.096Z,51.60
2018-11-06T08:35:47.116Z,39.57
2018-11-06T08:38:21.168Z,41.23
2018-11-06T08:40:55.197Z,45.03
2018-11-06T08:43:29.196Z,39.43
2018-11-06T08:46:03.386Z,40.40
2018-11-06T08:48:37.371Z,34.97
2018-11-06T08:51:11.479Z,41.27
2018-11-06T08:53:45.487Z,38.77
2018-11-06T08:56:19.517Z,38.47
2018-11-06T08:58:53.555Z,38.57
2018-11-06T09:01:27.666Z,42.00
2018-11-06T09:04:01.744Z,36.77
2018-11-06T09:06:35.764Z,35.33
2018-11-06T09:09:10.444Z,35.37
2018-11-06T09:11:44.470Z,36.17
2018-11-06T09:14:18.499Z,36.37
2018-11-06T09:16:52.752Z,35.87
2018-11-06T09:19:26.712Z,36.13
2018-11-06T09:22:00.743Z,36.47
2018-11-06T09:24:34.732Z,36.17
2018-11-06T09:27:08.782Z,34.77
2018-11-06T09:29:42.872Z,34.97
2018-11-06T09:32:16.915Z,35.53
2018-11-06T09:34:50.950Z,35.00
2018-11-06T09:37:24.967Z,34.97
2018-11-06T09:39:58.992Z,35.37
2018-11-06T09:42:33.103Z,34.03
2018-11-06T09:45:07.969Z,35.23
2018-11-06T09:47:41.999Z,33.43
2018-11-06T09:50:18.268Z,34.30
2018-11-06T09:52:52.315Z,36.37
2018-11-06T09:55:26.391Z,35.73
2018-11-06T09:58:00.400Z,36.43
2018-11-06T10:00:34.449Z,35.93
2018-11-06T10:03:08.506Z,37.10
2018-11-06T10:05:42.528Z,35.37
2018-11-06T10:08:16.649Z,36.43
2018-11-06T10:10:50.763Z,38.00
2018-11-06T10:13:24.763Z,38.73
2018-11-06T10:15:58.787Z,39.20
2018-11-06T10:18:32.783Z,40.77
2018-11-06T10:21:06.916Z,40.77
2018-11-06T10:23:40.867Z,38.57
2018-11-06T10:26:14.891Z,38.27
2018-11-06T10:28:48.876Z,37.60
2018-11-06T10:31:22.926Z,38.17
2018-11-06T10:33:56.968Z,39.57
2018-11-06T10:36:31.239Z,39.40
2018-11-06T10:39:08.252Z,52.53
2018-11-06T10:41:42.583Z,41.57
2018-11-06T10:44:16.567Z,62.37
2018-11-06T10:46:50.628Z,44.60
2018-11-06T10:49:24.633Z,42.87
2018-11-06T10:51:58.653Z,49.53
2018-11-06T10:54:33.267Z,42.20
2018-11-06T10:57:07.284Z,42.93
2018-11-06T10:59:41.317Z,45.47
2018-11-06T11:02:16.519Z,44.20
2018-11-06T11:04:50.523Z,42.83
2018-11-06T11:07:24.947Z,42.77
2018-11-06T11:09:58.975Z,42.50
2018-11-06T11:12:33.051Z,43.50
2018-11-06T11:15:07.180Z,42.40
2018-11-06T11:17:41.332Z,43.93
2018-11-06T11:20:15.507Z,40.67
2018-11-06T11:22:49.423Z,38.80
2018-11-06T11:25:23.450Z,38.80
2018-11-06T11:27:57.466Z,38.87
2018-11-06T11:30:35.232Z,38.57
2018-11-06T11:33:09.344Z,38.77
2018-11-06T11:35:43.352Z,38.83
2018-11-06T11:38:17.413Z,40.20
2018-11-06T11:40:52.102Z,38.27
2018-11-06T11:43:26.108Z,39.23
2018-11-06T11:46:00.205Z,38.73
2018-11-06T11:48:35.141Z,39.60
2018-11-06T11:51:09.404Z,38.67
2018-11-06T11:54:02.924Z,40.43
2018-11-06T11:56:36.944Z,40.27
2018-11-06T11:59:10.997Z,40.20
2018-11-06T12:01:45.011Z,40.63
2018-11-06T12:04:19.835Z,41.33
2018-11-06T12:06:53.851Z,39.10
2018-11-06T12:09:27.852Z,41.03
2018-11-06T12:12:01.903Z,40.03
2018-11-06T12:14:35.903Z,41.63
2018-11-06T12:17:14.120Z,40.70
2018-11-06T12:19:56.563Z,42.63
2018-11-06T12:22:30.723Z,41.87
2018-11-06T12:25:05.159Z,41.73
2018-11-06T12:27:39.007Z,43.43
2018-11-06T12:30:14.608Z,41.23
2018-11-06T12:32:48.666Z,41.83
2018-11-06T12:35:28.772Z,40.53
2018-11-06T12:38:03.087Z,41.60
2018-11-06T12:40:37.133Z,42.60
2018-11-06T12:43:21.313Z,40.83
2018-11-06T12:45:56.489Z,46.50
2018-11-06T12:48:30.511Z,41.00
2018-11-06T12:51:04.640Z,41.47
2018-11-06T12:53:38.819Z,41.57
2018-11-06T12:56:12.884Z,40.50
2018-11-06T12:58:48.959Z,41.23
2018-11-06T13:01:23.076Z,42.03
2018-11-06T13:03:57.080Z,40.63
2018-11-06T13:06:31.355Z,41.17
2018-11-06T13:09:08.159Z,40.77
2018-11-06T13:11:42.218Z,39.87
2018-11-06T13:14:16.360Z,40.27
2018-11-06T13:16:51.484Z,39.90
2018-11-06T13:19:25.552Z,46.27
2018-11-06T13:21:59.762Z,40.03
2018-11-06T13:24:35.818Z,40.43
2018-11-06T13:27:10.824Z,42.70
2018-11-06T13:29:45.104Z,40.43
2018-11-06T13:32:19.245Z,42.30
2018-11-06T13:34:53.351Z,42.07
2018-11-06T13:37:27.512Z,40.90
2018-11-06T13:40:01.529Z,39.73
2018-11-06T13:42:35.767Z,38.77
2018-11-06T13:45:14.346Z,40.00
2018-11-06T13:47:49.595Z,39.87
2018-11-06T13:50:27.074Z,42.37
2018-11-06T13:53:01.283Z,39.77
2018-11-06T13:55:35.328Z,41.30
2018-11-06T13:58:09.357Z,39.53
2018-11-06T14:00:44.188Z,39.17
2018-11-06T14:03:26.686Z,40.37
2018-11-06T14:06:04.576Z,39.83
2018-11-06T14:08:38.600Z,38.97
2018-11-06T14:11:17.335Z,38.53
2018-11-06T14:13:51.435Z,38.37
2018-11-06T14:16:25.745Z,38.87
2018-11-06T14:18:59.787Z,39.27
2018-11-06T14:21:34.248Z,38.33
2018-11-06T14:24:08.264Z,38.87
2018-11-06T14:26:42.283Z,39.93
2018-11-06T14:29:16.504Z,39.20
2018-11-06T14:31:50.662Z,37.80
2018-11-06T14:34:24.780Z,38.83
2018-11-06T14:36:58.969Z,39.73
2018-11-06T14:39:37.509Z,38.73
2018-11-06T14:42:12.832Z,38.00
2018-11-06T14:44:46.849Z,37.77
2018-11-06T14:47:23.986Z,37.13
2018-11-06T14:49:58.135Z,37.23
2018-11-06T14:52:32.779Z,38.10
2018-11-06T14:55:08.861Z,37.57
2018-11-06T14:57:43.077Z,37.43
2018-11-06T15:00:18.369Z,37.53
2018-11-06T15:02:53.359Z,37.93
2018-11-06T15:05:27.444Z,37.90
2018-11-06T15:08:01.502Z,37.90
2018-11-06T15:10:35.497Z,37.77
2018-11-06T15:13:09.623Z,38.33
2018-11-06T15:15:43.687Z,37.03
2018-11-06T15:18:17.767Z,37.80
2018-11-06T15:20:51.820Z,35.93
2018-11-06T15:23:25.783Z,35.60
2018-11-06T15:25:59.808Z,36.50
2018-11-06T15:28:34.207Z,36.07
2018-11-06T15:31:09.385Z,38.77
2018-11-06T15:33:43.425Z,36.70
2018-11-06T15:36:17.867Z,37.27
2018-11-06T15:38:52.607Z,37.53
2018-11-06T15:41:27.276Z,37.43
2018-11-06T15:44:01.866Z,37.83
2018-11-06T15:46:37.141Z,37.27
2018-11-06T15:49:11.411Z,36.03
2018-11-06T15:51:45.412Z,36.37
2018-11-06T15:54:19.438Z,38.33
2018-11-06T15:56:53.441Z,38.60
2018-11-06T15:59:27.580Z,36.73
2018-11-06T16:02:01.572Z,38.03
2018-11-06T16:04:35.680Z,37.00
2018-11-06T16:07:10.020Z,37.47
2018-11-06T16:09:44.036Z,40.13
2018-11-06T16:12:19.282Z,40.47
2018-11-06T16:14:53.325Z,37.67
2018-11-06T16:17:27.606Z,38.90
2018-11-06T16:20:02.059Z,38.43
2018-11-06T16:22:36.248Z,40.37
2018-11-06T16:25:12.143Z,38.30
2018-11-06T16:27:46.704Z,40.03
2018-11-06T16:30:22.048Z,38.80
2018-11-06T16:32:56.311Z,39.93
2018-11-06T16:35:30.315Z,48.10
2018-11-06T16:38:04.577Z,45.50
2018-11-06T16:40:38.768Z,60.17
2018-11-06T16:43:16.856Z,41.67
2018-11-06T16:45:52.350Z,38.10
2018-11-06T16:48:28.613Z,38.83
2018-11-06T16:51:03.503Z,38.27
2018-11-06T16:53:37.621Z,43.78
2018-11-06T16:56:11.729Z,44.13
2018-11-06T16:58:45.832Z,46.10
2018-11-06T17:01:19.949Z,48.57
2018-11-06T17:03:56.560Z,44.93
2018-11-06T17:06:37.749Z,42.27
2018-11-06T17:09:12.368Z,39.50
2018-11-06T17:11:46.411Z,41.50
2018-11-06T17:14:21.884Z,39.97
2018-11-06T17:16:57.044Z,44.47
2018-11-06T17:19:31.450Z,41.33
2018-11-06T17:22:06.248Z,40.30
2018-11-06T17:24:40.383Z,40.60
2018-11-06T17:27:14.398Z,41.13
2018-11-06T17:29:50.326Z,41.00
2018-11-06T17:32:24.398Z,42.90
2018-11-06T17:34:59.124Z,40.90
2018-11-06T17:37:33.231Z,40.77
2018-11-06T17:40:10.543Z,40.73
2018-11-06T17:42:44.591Z,39.17
2018-11-06T17:45:26.180Z,39.83
2018-11-06T17:48:00.995Z,36.00
2018-11-06T17:50:35.121Z,38.77
2018-11-06T17:53:09.158Z,38.80
2018-11-06T17:55:43.808Z,38.43
2018-11-06T17:58:18.430Z,39.43
2018-11-06T18:00:53.059Z,39.47
2018-11-06T18:06:20.420Z,50.87
2018-11-06T18:08:56.559Z,45.93
2018-11-06T18:11:32.844Z,40.50
2018-11-06T18:14:07.804Z,42.87
2018-11-06T18:16:41.848Z,49.93
2018-11-06T18:19:29.017Z,50.83
2018-11-06T18:22:03.768Z,48.90
2018-11-06T18:24:38.122Z,44.13
2018-11-06T18:27:12.132Z,33.77
2018-11-06T18:29:46.181Z,30.53
2018-11-06T18:32:20.973Z,29.73
2018-11-06T18:34:55.107Z,30.13
2018-11-06T18:37:29.307Z,29.93
2018-11-06T18:40:03.743Z,30.00
2018-11-06T18:42:39.919Z,30.00
2018-11-06T18:45:14.833Z,29.57
2018-11-06T18:47:51.493Z,28.77
2018-11-06T18:50:25.580Z,28.43
2018-11-06T18:53:03.763Z,28.77
2018-11-06T18:55:38.056Z,28.93
2018-11-06T18:58:12.447Z,28.57
2018-11-06T19:00:46.428Z,28.00
2018-11-06T19:03:23.248Z,29.03
2018-11-06T19:05:57.319Z,28.97
2018-11-06T19:08:31.395Z,28.47
2018-11-06T19:11:05.596Z,28.90
2018-11-06T19:13:39.663Z,27.83
2018-11-06T19:16:13.688Z,27.23
2018-11-06T19:18:47.749Z,27.73
2018-11-06T19:21:21.863Z,27.03
2018-11-06T19:23:55.895Z,26.87
2018-11-06T19:26:30.068Z,26.87
2018-11-06T19:29:04.471Z,28.00
2018-11-06T19:31:38.508Z,27.53
2018-11-06T19:34:12.775Z,27.03
2018-11-06T19:36:46.779Z,27.30
2018-11-06T19:39:20.873Z,26.83
2018-11-06T19:41:55.951Z,27.50
2018-11-06T19:44:30.013Z,26.60
2018-11-06T19:47:04.152Z,27.10
2018-11-06T19:49:39.393Z,26.80
2018-11-06T19:52:15.511Z,26.57
2018-11-06T19:54:50.065Z,26.73
2018-11-06T19:57:24.189Z,26.60
2018-11-06T19:59:58.244Z,26.50
2018-11-06T20:02:33.431Z,26.93
2018-11-06T20:05:08.532Z,26.60
2018-11-06T20:07:43.582Z,28.00
2018-11-06T20:10:19.174Z,27.03
2018-11-06T20:12:54.280Z,27.10
2018-11-06T20:15:28.467Z,27.73
2018-11-06T20:18:03.283Z,27.40
2018-11-06T20:20:37.204Z,27.77
2018-11-06T20:23:11.868Z,26.77
2018-11-06T20:25:45.918Z,27.40
2018-11-06T20:28:19.939Z,27.30
2018-11-06T20:30:54.019Z,27.10
2018-11-06T20:33:29.110Z,27.37
2018-11-06T20:36:03.319Z,28.00
2018-11-06T20:38:37.456Z,27.07
2018-11-06T20:41:11.687Z,27.57
2018-11-06T20:43:45.802Z,28.20
2018-11-06T20:46:19.867Z,26.80
2018-11-06T20:48:53.919Z,26.90
2018-11-06T20:51:27.923Z,26.93
2018-11-06T20:54:02.024Z,27.03
2018-11-06T20:56:36.144Z,27.10
2018-11-06T20:59:10.692Z,27.23
2018-11-06T21:01:44.844Z,26.97
2018-11-06T21:04:19.718Z,30.13
2018-11-06T21:06:53.854Z,29.30
2018-11-06T21:09:28.052Z,32.53
2018-11-06T21:12:02.319Z,32.30
2018-11-06T21:14:38.576Z,30.40
2018-11-06T21:17:15.047Z,33.40
2018-11-06T21:19:49.118Z,30.70
2018-11-06T21:22:25.556Z,30.13
2018-11-06T21:25:04.137Z,30.33
2018-11-06T21:27:40.147Z,30.07
2018-11-06T21:30:19.447Z,30.60
2018-11-06T21:32:56.309Z,31.40
2018-11-06T21:35:32.899Z,31.80
2018-11-06T21:38:09.124Z,32.60
2018-11-06T21:40:43.160Z,31.70
2018-11-06T21:43:19.319Z,30.73
2018-11-06T21:45:53.585Z,30.73
2018-11-06T21:48:27.672Z,29.83
2018-11-06T21:51:01.700Z,31.47
2018-11-06T21:53:35.704Z,31.87
2018-11-06T21:56:09.804Z,32.00
2018-11-06T21:58:43.922Z,31.67
2018-11-06T22:01:18.007Z,37.90
2018-11-06T22:03:52.068Z,37.63
2018-11-06T22:06:26.621Z,33.87
2018-11-06T22:09:00.692Z,33.53
2018-11-06T22:11:34.723Z,31.83
2018-11-06T22:14:08.781Z,30.10
2018-11-06T22:16:42.799Z,28.07
2018-11-06T22:19:16.821Z,31.57
2018-11-06T22:21:50.823Z,30.63
2018-11-06T22:24:24.863Z,31.63
2018-11-06T22:26:58.903Z,29.33
2018-11-06T22:29:32.925Z,30.13
2018-11-06T22:32:07.082Z,32.07
2018-11-06T22:34:41.067Z,31.77
2018-11-06T22:37:15.217Z,30.33
2018-11-06T22:39:49.257Z,31.00
2018-11-06T22:42:23.268Z,31.57
2018-11-06T22:44:57.367Z,32.03
2018-11-06T22:47:31.359Z,31.07
2018-11-06T22:50:07.811Z,30.23
2018-11-06T22:52:42.373Z,29.80
2018-11-06T22:55:16.603Z,31.00
2018-11-06T22:57:50.596Z,31.07
2018-11-06T23:00:29.981Z,30.90
2018-11-06T23:03:08.296Z,31.23
2018-11-06T23:05:42.346Z,32.50
2018-11-06T23:08:21.628Z,31.87
2018-11-06T23:10:55.901Z,32.00
2018-11-06T23:13:30.081Z,31.30
2018-11-06T23:16:04.136Z,31.47
2018-11-06T23:18:38.135Z,31.07
2018-11-06T23:21:13.305Z,31.43
2018-11-06T23:23:47.301Z,30.63
2018-11-06T23:26:21.413Z,30.07
2018-11-06T23:28:55.428Z,30.40
2018-11-06T23:31:29.601Z,29.33
2018-11-06T23:34:03.596Z,28.10
2018-11-06T23:36:37.675Z,28.13
2018-11-06T23:39:11.764Z,28.03
2018-11-06T23:41:45.796Z,28.13
2018-11-06T23:44:19.848Z,28.00
2018-11-06T23:46:53.868Z,27.40
2018-11-06T23:49:27.908Z,26.73
2018-11-06T23:52:02.024Z,27.10
2018-11-06T23:54:36.020Z,27.10
2018-11-06T23:57:10.035Z,26.70
2018-11-06T23:59:44.052Z,26.33
